Eminence, Missouri
Current Conditions -  °F | °C
As of 2:53 AM on Wednesday 26 Nov 2014 (Local Time) from KUNO Reporting Station
Clear Clear  
Wind Chill: 29°   Ceiling: Unl
Heat Index: 29°   Visibility: 10mi
Dew Point: 18°   Wind: 3mph
Humidity: 64%   Direction: 160°SSE
Pressure: 30.07"   Gusts: NA
Location:  37.15°N, 91.36°W
Report Text: KUNO 260853Z AUTO 16003KT 10SM CLR M02/M08 A3007 RMK AO2 SLP188 T10171078 56016
Loading
Personal Weather Stations






























Interactive Weather Map New forecast layout! Learn more

10-Day Weather Forecast

Advertisements
Track Severe Weather on mobile